Time;durP1;ratioP1;P1;durP2;ratioP2;P2;SDS_P1;SDS_P2;PMS_P1;PMS_P2;Temp;Humidity;BMP_temperature;BMP_pressure;BME280_temperature;BME280_humidity;BME280_pressure;Samples;Min_cycle;Max_cycle;Signal;HPM_P1;HPM_P2
2022/01/02 00:00:03;;;;;;;9.25;6.07;;;11.20;99.90;;;;;;5123779;28;20478;-80
2022/01/02 00:02:30;;;;;;;7.18;6.43;;;11.30;99.90;;;;;;5107588;28;20101;-80
2022/01/02 00:04:56;;;;;;;9.75;8.45;;;11.30;99.90;;;;;;5096906;28;20051;-79
2022/01/02 00:07:23;;;;;;;44.10;39.85;;;11.30;99.90;;;;;;5103978;28;20051;-80
2022/01/02 00:09:49;;;;;;;10.63;6.90;;;11.30;99.90;;;;;;5113993;28;20051;-80
2022/01/02 00:12:16;;;;;;;9.75;7.40;;;11.30;99.90;;;;;;5118654;28;20063;-79
2022/01/02 00:14:43;;;;;;;34.28;30.83;;;11.30;99.90;;;;;;5098435;28;20463;-80
2022/01/02 00:17:09;;;;;;;51.45;45.17;;;11.30;99.90;;;;;;5100178;28;20074;-79
2022/01/02 00:19:39;;;;;;;13.57;9.80;;;11.30;99.90;;;;;;5102113;28;20399;-80
2022/01/02 00:22:13;;;;;;;17.93;16.10;;;11.20;99.90;;;;;;5110260;28;20053;-80
2022/01/02 00:24:41;;;;;;;15.88;13.70;;;11.20;99.90;;;;;;5103495;28;20475;-80
2022/01/02 00:27:07;;;;;;;15.68;14.00;;;11.20;99.90;;;;;;5102144;28;20086;-79
2022/01/02 00:29:34;;;;;;;12.88;6.97;;;11.20;99.90;;;;;;5100313;28;20047;-79
2022/01/02 00:32:00;;;;;;;7.15;6.20;;;11.20;99.90;;;;;;5097042;28;20501;-80
2022/01/02 00:34:27;;;;;;;10.57;6.07;;;11.20;99.90;;;;;;5111643;28;20050;-80
2022/01/02 00:36:53;;;;;;;10.90;6.60;;;11.20;99.90;;;;;;5108572;28;20055;-79
2022/01/02 00:39:20;;;;;;;9.80;6.75;;;11.20;99.90;;;;;;5106576;28;20047;-80
2022/01/02 00:41:47;;;;;;;8.70;7.05;;;11.20;99.90;;;;;;5111690;28;20052;-79
2022/01/02 00:44:13;;;;;;;12.77;6.18;;;11.20;99.90;;;;;;5097182;28;20490;-79
2022/01/02 00:46:40;;;;;;;11.13;7.25;;;11.20;99.90;;;;;;5111379;28;20039;-79
2022/01/02 00:49:06;;;;;;;7.82;6.40;;;11.10;99.90;;;;;;5112973;28;20040;-80
2022/01/02 00:51:33;;;;;;;9.20;6.28;;;11.10;99.90;;;;;;5098322;28;20050;-79
2022/01/02 00:53:59;;;;;;;11.40;7.60;;;11.10;99.90;;;;;;5116897;28;20058;-80
2022/01/02 00:56:26;;;;;;;8.77;7.15;;;11.20;99.90;;;;;;5111475;28;20051;-79
2022/01/02 00:58:52;;;;;;;9.35;6.18;;;11.10;99.90;;;;;;5099856;28;20048;-80
2022/01/02 01:01:19;;;;;;;11.55;7.65;;;11.10;99.90;;;;;;5099803;28;20377;-80
2022/01/02 01:03:46;;;;;;;9.73;6.80;;;11.10;99.90;;;;;;5110466;28;20483;-79
2022/01/02 01:06:12;;;;;;;10.18;7.22;;;11.00;99.90;;;;;;5094878;28;20062;-79
2022/01/02 01:08:40;;;;;;;15.60;7.38;;;11.00;99.90;;;;;;5097704;28;20044;-80
2022/01/02 01:11:08;;;;;;;14.63;7.90;;;11.00;99.90;;;;;;5126204;27;20130;-80
2022/01/02 01:13:34;;;;;;;12.38;6.80;;;11.00;99.90;;;;;;5110544;27;20047;-80
2022/01/02 01:16:01;;;;;;;10.57;6.78;;;11.00;99.90;;;;;;5100952;28;20051;-81
2022/01/02 01:18:27;;;;;;;14.85;6.90;;;11.00;99.90;;;;;;5104985;27;20043;-80
2022/01/02 01:20:54;;;;;;;17.90;8.63;;;11.00;99.90;;;;;;5116502;27;20051;-79
2022/01/02 01:23:21;;;;;;;11.65;6.72;;;11.00;99.90;;;;;;5126290;27;20039;-80
2022/01/02 01:25:48;;;;;;;9.70;6.78;;;11.00;99.90;;;;;;5109229;27;20047;-79
2022/01/02 01:28:14;;;;;;;13.75;6.75;;;11.00;99.90;;;;;;5115767;27;20051;-80
2022/01/02 01:30:41;;;;;;;7.47;6.22;;;11.10;99.90;;;;;;5124004;27;20047;-79
2022/01/02 01:33:07;;;;;;;17.77;8.63;;;11.00;99.90;;;;;;5112581;27;20046;-80
2022/01/02 01:35:34;;;;;;;11.40;7.25;;;11.00;99.90;;;;;;5100800;28;20063;-79
2022/01/02 01:38:01;;;;;;;12.85;6.93;;;11.00;99.90;;;;;;5100967;27;20043;-78
2022/01/02 01:40:27;;;;;;;16.90;7.25;;;11.10;99.90;;;;;;5121980;27;20123;-79
2022/01/02 01:42:58;;;;;;;14.18;7.80;;;11.00;99.90;;;;;;5106365;27;20052;-79
2022/01/02 01:45:31;;;;;;;10.77;6.50;;;11.10;99.90;;;;;;5101118;28;20051;-80
2022/01/02 01:47:57;;;;;;;11.57;6.18;;;11.10;99.90;;;;;;5101162;28;20043;-80
2022/01/02 01:50:24;;;;;;;23.75;7.32;;;11.10;99.90;;;;;;5099321;27;20036;-80
2022/01/02 01:52:50;;;;;;;10.73;7.80;;;11.10;99.90;;;;;;5098210;28;20051;-79
2022/01/02 01:55:17;;;;;;;13.80;7.45;;;11.10;99.90;;;;;;5109356;27;20047;-80
2022/01/02 01:57:44;;;;;;;13.48;7.32;;;11.00;99.90;;;;;;5108908;27;20448;-80
2022/01/02 02:00:10;;;;;;;13.25;7.45;;;11.10;99.90;;;;;;5120846;27;20486;-80
2022/01/02 02:02:37;;;;;;;14.32;7.25;;;11.00;99.90;;;;;;5096043;28;20046;-79
2022/01/02 02:05:03;;;;;;;14.13;8.07;;;11.00;99.90;;;;;;5109021;27;20051;-79
2022/01/02 02:07:38;;;;;;;12.90;7.25;;;11.00;99.90;;;;;;5106297;28;20117;-79
2022/01/02 02:10:12;;;;;;;15.13;7.95;;;11.00;99.90;;;;;;5100333;28;20048;-80
2022/01/02 02:12:38;;;;;;;9.63;6.65;;;11.00;99.90;;;;;;5105545;28;20487;-80
2022/01/02 02:15:05;;;;;;;12.23;7.25;;;11.00;99.90;;;;;;5107958;27;20474;-79
2022/01/02 02:17:31;;;;;;;11.80;8.18;;;10.90;99.90;;;;;;5104874;28;20058;-80
2022/01/02 02:19:58;;;;;;;13.13;8.05;;;10.90;99.90;;;;;;5097250;27;20054;-80
2022/01/02 02:22:25;;;;;;;13.65;7.50;;;10.90;99.90;;;;;;5126900;27;20093;-80
2022/01/02 02:24:52;;;;;;;10.52;7.38;;;11.00;99.90;;;;;;5100826;28;20047;-80
2022/01/02 02:27:18;;;;;;;13.13;7.43;;;10.90;99.90;;;;;;5105902;28;20074;-80
2022/01/02 02:29:45;;;;;;;16.17;7.43;;;11.00;99.90;;;;;;5106983;27;20398;-80
2022/01/02 02:32:11;;;;;;;13.23;8.85;;;10.90;99.90;;;;;;5103429;28;20052;-80
2022/01/02 02:34:38;;;;;;;18.40;8.10;;;10.90;99.90;;;;;;5103861;27;20402;-79
2022/01/02 02:37:05;;;;;;;11.07;8.13;;;10.90;99.90;;;;;;5116079;27;20059;-80
2022/01/02 02:39:33;;;;;;;19.23;9.70;;;10.90;99.90;;;;;;5102078;27;20060;-80
2022/01/02 02:42:06;;;;;;;17.10;8.30;;;10.90;99.90;;;;;;5101317;27;20054;-79
2022/01/02 02:44:37;;;;;;;12.13;7.97;;;10.90;99.90;;;;;;5106683;27;20062;-80
2022/01/02 02:49:48;;;;;;;12.75;8.65;;;10.90;99.90;;;;;;5101360;27;20062;-80
2022/01/02 02:52:25;;;;;;;14.38;8.40;;;10.90;99.90;;;;;;5101907;28;20062;-80
2022/01/02 02:54:54;;;;;;;11.15;8.43;;;10.80;99.90;;;;;;5101684;27;20047;-80
2022/01/02 02:57:21;;;;;;;16.83;8.38;;;10.80;99.90;;;;;;5099860;28;20493;-80
2022/01/02 02:59:47;;;;;;;12.40;8.00;;;10.80;99.90;;;;;;5103001;27;20082;-80
2022/01/02 03:02:14;;;;;;;16.75;9.52;;;10.80;99.90;;;;;;5113187;27;20051;-80
2022/01/02 03:04:40;;;;;;;18.73;9.38;;;10.80;99.90;;;;;;5114200;27;20043;-80
2022/01/02 03:07:07;;;;;;;14.13;8.45;;;10.80;99.90;;;;;;5094691;28;20047;-79
2022/01/02 03:09:39;;;;;;;14.43;7.63;;;10.80;99.90;;;;;;5123761;27;20043;-80
2022/01/02 03:12:05;;;;;;;16.85;9.32;;;10.80;99.90;;;;;;5112718;27;20055;-80
2022/01/02 03:14:32;;;;;;;13.95;8.38;;;10.80;99.90;;;;;;5104895;27;20040;-81
2022/01/02 03:16:58;;;;;;;18.48;10.00;;;10.70;99.90;;;;;;5115248;27;20047;-80
2022/01/02 03:19:25;;;;;;;17.10;9.32;;;10.80;99.90;;;;;;5112068;27;20062;-79
2022/01/02 03:21:51;;;;;;;15.07;8.45;;;10.70;99.90;;;;;;5110649;27;20051;-80
2022/01/02 03:24:18;;;;;;;16.50;9.48;;;10.70;99.90;;;;;;5102899;27;20055;-81
2022/01/02 03:26:45;;;;;;;17.95;8.68;;;10.70;99.90;;;;;;5101540;27;20051;-81
2022/01/02 03:29:11;;;;;;;16.65;8.70;;;10.70;99.90;;;;;;5098276;27;20398;-81
2022/01/02 03:31:38;;;;;;;19.58;8.95;;;10.70;99.90;;;;;;5102972;28;20505;-81
2022/01/02 03:34:04;;;;;;;11.07;8.02;;;10.70;99.90;;;;;;5096598;27;21004;-81
2022/01/02 03:36:31;;;;;;;18.48;8.60;;;10.70;99.90;;;;;;5107101;28;20055;-80
2022/01/02 03:38:57;;;;;;;15.52;9.15;;;10.70;99.90;;;;;;5099395;28;20052;-80
2022/01/02 03:41:24;;;;;;;18.58;8.63;;;10.70;99.90;;;;;;5094457;28;20048;-81
2022/01/02 03:43:50;;;;;;;16.00;9.30;;;10.70;99.90;;;;;;5100629;28;20055;-80
2022/01/02 03:46:17;;;;;;;14.27;9.23;;;10.70;99.90;;;;;;5092859;28;20056;-82
2022/01/02 03:48:43;;;;;;;20.17;8.82;;;10.60;99.90;;;;;;5091527;28;20048;-81
2022/01/02 03:51:10;;;;;;;15.55;8.65;;;10.70;99.90;;;;;;5108961;28;20043;-80
2022/01/02 03:53:36;;;;;;;11.52;8.65;;;10.70;99.90;;;;;;5103396;28;20109;-80
2022/01/02 03:56:03;;;;;;;17.08;9.10;;;10.70;99.90;;;;;;5099695;28;20079;-80
2022/01/02 03:58:29;;;;;;;15.40;8.43;;;10.60;99.90;;;;;;5101484;28;20411;-80
2022/01/02 04:00:56;;;;;;;19.15;9.77;;;10.60;99.90;;;;;;5104471;28;20044;-81
2022/01/02 04:03:23;;;;;;;21.70;9.90;;;10.70;99.90;;;;;;5104890;28;20055;-81
2022/01/02 04:05:49;;;;;;;19.63;10.35;;;10.70;99.90;;;;;;5095902;28;20052;-79
2022/01/02 04:08:16;;;;;;;21.73;10.15;;;10.70;99.90;;;;;;5102477;28;20054;-80
2022/01/02 04:10:42;;;;;;;19.20;10.45;;;10.70;99.90;;;;;;5093064;28;20048;-80
2022/01/02 04:13:09;;;;;;;13.68;9.40;;;10.70;99.90;;;;;;5098969;28;20051;-80
2022/01/02 04:15:35;;;;;;;11.55;8.93;;;10.70;99.90;;;;;;5097969;28;20075;-80
2022/01/02 04:18:02;;;;;;;22.23;10.05;;;10.70;99.90;;;;;;5100440;28;20051;-80
2022/01/02 04:20:28;;;;;;;22.55;10.55;;;10.70;99.90;;;;;;5098951;28;20059;-81
2022/01/02 04:22:55;;;;;;;19.30;10.48;;;10.80;99.90;;;;;;5110409;28;20052;-80
2022/01/02 04:25:21;;;;;;;14.98;9.43;;;10.80;99.90;;;;;;5090233;28;20422;-81
2022/01/02 04:27:48;;;;;;;25.92;9.90;;;10.70;99.90;;;;;;5100859;28;20067;-80
2022/01/02 04:30:14;;;;;;;17.27;10.13;;;10.80;99.90;;;;;;5099320;28;20044;-80
2022/01/02 04:32:41;;;;;;;21.95;8.73;;;10.80;99.90;;;;;;5092638;28;20044;-81
2022/01/02 04:35:08;;;;;;;17.15;9.45;;;10.80;99.90;;;;;;5096989;28;20050;-80
2022/01/02 04:37:34;;;;;;;14.68;9.10;;;10.80;99.90;;;;;;5097882;28;20052;-81
2022/01/02 04:40:01;;;;;;;13.68;8.68;;;10.80;99.90;;;;;;5102724;28;20048;-80
2022/01/02 04:42:27;;;;;;;19.88;9.00;;;10.80;99.90;;;;;;5092022;28;20055;-81
2022/01/02 04:44:54;;;;;;;19.83;9.45;;;10.90;99.90;;;;;;5105674;28;20050;-81
2022/01/02 04:47:21;;;;;;;15.38;8.20;;;10.90;99.90;;;;;;5099779;28;20048;-81
2022/01/02 04:49:47;;;;;;;12.07;8.60;;;10.90;99.90;;;;;;5103828;28;20100;-80
2022/01/02 04:52:14;;;;;;;26.30;9.40;;;10.90;99.90;;;;;;5112936;28;20558;-82
2022/01/02 04:54:40;;;;;;;15.60;9.15;;;11.00;99.90;;;;;;5105932;28;20123;-81
2022/01/02 04:57:07;;;;;;;13.35;8.38;;;11.00;99.90;;;;;;5109966;28;20083;-81
2022/01/02 04:59:33;;;;;;;18.40;9.85;;;11.10;99.90;;;;;;5104470;28;20039;-81
2022/01/02 05:02:00;;;;;;;22.88;8.75;;;11.00;99.90;;;;;;5100890;28;20049;-80
2022/01/02 05:04:27;;;;;;;15.30;8.82;;;11.10;99.90;;;;;;5096290;28;20048;-81
2022/01/02 05:06:53;;;;;;;13.90;8.65;;;11.00;99.90;;;;;;5095815;28;20051;-81
2022/01/02 05:09:20;;;;;;;17.58;8.95;;;11.10;99.90;;;;;;5102568;28;20059;-81
2022/01/02 05:11:46;;;;;;;13.07;7.07;;;11.00;99.90;;;;;;5099419;28;20055;-82
2022/01/02 05:14:13;;;;;;;10.38;7.70;;;11.00;99.90;;;;;;5098802;28;20047;-81
2022/01/02 05:16:39;;;;;;;16.65;8.55;;;11.00;99.90;;;;;;5096719;28;20059;-81
2022/01/02 05:19:06;;;;;;;14.40;8.40;;;11.00;99.90;;;;;;5108445;28;20067;-81
2022/01/02 05:21:32;;;;;;;12.13;7.45;;;11.00;99.90;;;;;;5108072;28;20044;-79
2022/01/02 05:23:59;;;;;;;14.93;7.82;;;11.00;99.90;;;;;;5103178;28;20044;-81
2022/01/02 05:26:25;;;;;;;16.75;8.23;;;11.00;99.90;;;;;;5097630;28;20109;-81
2022/01/02 05:28:52;;;;;;;13.13;8.32;;;11.00;99.90;;;;;;5099082;28;20047;-80
2022/01/02 05:31:18;;;;;;;18.70;7.85;;;11.00;99.90;;;;;;5102507;28;20043;-80
2022/01/02 05:33:45;;;;;;;16.60;7.93;;;11.10;99.90;;;;;;5097927;28;20043;-80
2022/01/02 05:36:11;;;;;;;16.70;7.20;;;11.10;99.90;;;;;;5101072;28;20047;-80
2022/01/02 05:38:38;;;;;;;20.23;8.32;;;11.10;99.90;;;;;;5096876;28;20048;-79
2022/01/02 05:41:05;;;;;;;13.93;7.03;;;11.10;99.90;;;;;;5097235;28;20044;-80
2022/01/02 05:43:31;;;;;;;15.77;7.45;;;11.10;99.90;;;;;;5101183;28;20051;-80
2022/01/02 05:46:03;;;;;;;17.80;6.68;;;11.10;99.90;;;;;;5100811;28;20052;-81
2022/01/02 05:48:30;;;;;;;15.00;6.38;;;11.20;99.90;;;;;;5097847;28;20063;-81
2022/01/02 05:50:58;;;;;;;14.52;7.63;;;11.20;99.90;;;;;;5100566;28;20498;-80
2022/01/02 05:53:25;;;;;;;15.85;7.18;;;11.20;99.90;;;;;;5108938;28;20450;-80
2022/01/02 05:55:51;;;;;;;14.10;6.88;;;11.20;99.90;;;;;;5110345;28;20140;-81
2022/01/02 05:58:18;;;;;;;12.88;7.45;;;11.20;99.90;;;;;;5106846;28;20052;-80
2022/01/02 06:00:45;;;;;;;21.75;7.53;;;11.20;99.90;;;;;;5095284;28;20457;-81
2022/01/02 06:03:11;;;;;;;10.65;6.43;;;11.20;99.90;;;;;;5096127;28;20044;-81
2022/01/02 06:05:38;;;;;;;15.65;7.13;;;11.20;99.90;;;;;;5099712;28;20052;-81
2022/01/02 06:08:04;;;;;;;21.58;6.82;;;11.20;99.90;;;;;;5095766;28;20406;-80
2022/01/02 06:10:31;;;;;;;20.35;6.80;;;11.20;99.90;;;;;;5111329;28;20495;-81
2022/01/02 06:12:57;;;;;;;11.77;6.07;;;11.20;99.90;;;;;;5108200;28;20389;-81
2022/01/02 06:15:24;;;;;;;20.60;8.43;;;11.20;99.90;;;;;;5102388;28;20109;-80
2022/01/02 06:17:50;;;;;;;17.42;7.43;;;11.20;99.90;;;;;;5106747;28;20689;-81
2022/01/02 06:20:17;;;;;;;15.02;7.65;;;11.20;99.90;;;;;;5110153;28;20076;-81
2022/01/02 06:22:43;;;;;;;13.13;7.07;;;11.10;99.90;;;;;;5111352;28;20051;-81
2022/01/02 06:25:10;;;;;;;20.08;7.40;;;11.10;99.90;;;;;;5105155;28;20048;-81
2022/01/02 06:27:36;;;;;;;14.10;6.30;;;11.10;99.90;;;;;;5095592;28;20052;-81
2022/01/02 06:30:03;;;;;;;11.98;6.32;;;11.10;99.90;;;;;;5093775;28;20040;-80
2022/01/02 06:32:29;;;;;;;16.42;7.75;;;11.10;99.90;;;;;;5099257;28;20052;-81
2022/01/02 06:34:56;;;;;;;13.18;6.20;;;11.10;99.90;;;;;;5102881;28;20051;-80
2022/01/02 06:37:23;;;;;;;19.23;7.18;;;11.10;99.90;;;;;;5093603;28;20060;-80
2022/01/02 06:39:49;;;;;;;15.35;7.13;;;11.10;99.90;;;;;;5107063;28;20469;-81
2022/01/02 06:42:16;;;;;;;12.57;6.28;;;11.10;99.90;;;;;;5092548;28;20071;-80
2022/01/02 06:44:42;;;;;;;10.32;5.95;;;11.20;99.90;;;;;;5091927;28;20043;-81
2022/01/02 06:47:09;;;;;;;13.18;7.13;;;11.20;99.90;;;;;;5097974;28;20043;-81
2022/01/02 06:49:35;;;;;;;13.30;5.72;;;11.20;99.90;;;;;;5099240;28;20054;-81
2022/01/02 06:52:02;;;;;;;9.90;5.57;;;11.20;99.90;;;;;;5105790;28;20050;-81
2022/01/02 06:54:28;;;;;;;19.30;6.70;;;11.30;99.90;;;;;;5103819;28;20052;-81
2022/01/02 06:56:55;;;;;;;13.18;6.25;;;11.30;99.90;;;;;;5096519;28;20054;-80
2022/01/02 06:59:22;;;;;;;12.43;6.03;;;11.30;99.90;;;;;;5092164;28;20044;-80
2022/01/02 07:01:49;;;;;;;15.38;6.28;;;11.40;99.90;;;;;;5095101;28;20388;-80
2022/01/02 07:04:15;;;;;;;20.33;5.70;;;11.40;99.90;;;;;;5102784;28;20050;-80
2022/01/02 07:06:42;;;;;;;22.45;7.03;;;11.40;99.90;;;;;;5107537;28;20047;-80
2022/01/02 07:09:08;;;;;;;19.88;6.32;;;11.40;99.90;;;;;;5107052;28;20054;-80
2022/01/02 07:11:35;;;;;;;10.50;4.85;;;11.50;99.90;;;;;;5094200;28;20052;-81
2022/01/02 07:14:02;;;;;;;11.30;5.15;;;11.50;99.90;;;;;;5095230;28;20106;-80
2022/01/02 07:16:28;;;;;;;8.95;4.60;;;11.50;99.90;;;;;;5098621;28;20044;-80
2022/01/02 07:18:55;;;;;;;17.77;5.50;;;11.50;99.90;;;;;;5093668;28;20606;-81
2022/01/02 07:21:21;;;;;;;12.70;5.85;;;11.60;99.90;;;;;;5116945;27;20055;-80
2022/01/02 07:23:49;;;;;;;9.23;4.75;;;11.60;99.90;;;;;;5094896;28;20586;-81
2022/01/02 07:26:15;;;;;;;8.63;4.35;;;11.60;99.90;;;;;;5099310;28;20059;-81
2022/01/02 07:28:42;;;;;;;9.60;4.50;;;11.60;99.90;;;;;;5093661;28;20052;-81
2022/01/02 07:31:08;;;;;;;7.60;4.22;;;11.70;99.90;;;;;;5093117;28;20044;-81
2022/01/02 07:33:35;;;;;;;12.40;4.22;;;11.70;99.90;;;;;;5093325;28;20052;-80
2022/01/02 07:36:03;;;;;;;11.82;4.28;;;11.70;99.90;;;;;;5099135;28;20432;-80
2022/01/02 07:38:29;;;;;;;10.68;4.50;;;11.70;99.90;;;;;;5121341;27;20062;-81
2022/01/02 07:40:56;;;;;;;7.85;4.30;;;11.70;99.90;;;;;;5095887;27;20047;-80
2022/01/02 07:43:22;;;;;;;7.22;2.78;;;11.70;99.90;;;;;;5097280;27;20051;-80
2022/01/02 07:45:49;;;;;;;9.02;3.80;;;11.70;99.90;;;;;;5094028;27;20043;-81
2022/01/02 07:48:15;;;;;;;9.98;4.05;;;11.70;99.90;;;;;;5120255;27;20070;-80
2022/01/02 07:50:42;;;;;;;9.52;5.13;;;11.70;99.90;;;;;;5094131;28;20047;-81
2022/01/02 07:53:08;;;;;;;9.80;4.25;;;11.70;99.90;;;;;;5096171;28;20048;-81
2022/01/02 07:55:35;;;;;;;13.30;4.20;;;11.70;99.90;;;;;;5109752;28;20424;-80
2022/01/02 07:58:02;;;;;;;9.85;4.82;;;11.70;99.90;;;;;;5113310;28;20238;-81
2022/01/02 08:00:28;;;;;;;8.18;4.57;;;11.70;99.90;;;;;;5099047;28;20455;-80
2022/01/02 08:02:55;;;;;;;7.85;4.65;;;11.70;99.90;;;;;;5093715;28;20421;-80
2022/01/02 08:05:21;;;;;;;10.05;4.50;;;11.70;99.90;;;;;;5095579;28;20039;-79
2022/01/02 08:07:48;;;;;;;10.88;4.60;;;11.70;99.90;;;;;;5094484;28;20064;-79
2022/01/02 08:10:15;;;;;;;9.95;4.22;;;11.70;99.90;;;;;;5117517;28;20055;-80
2022/01/02 08:12:41;;;;;;;9.25;5.53;;;11.70;99.90;;;;;;5101948;28;20051;-80
2022/01/02 08:15:08;;;;;;;8.10;4.57;;;11.70;99.90;;;;;;5126591;28;20517;-80
2022/01/02 08:17:35;;;;;;;13.70;4.97;;;11.70;99.90;;;;;;5098367;28;20072;-80
2022/01/02 08:20:01;;;;;;;17.80;4.93;;;11.70;99.90;;;;;;5107914;27;20039;-80
2022/01/02 08:22:28;;;;;;;17.20;5.10;;;11.70;99.90;;;;;;5098917;28;20051;-80
2022/01/02 08:24:55;;;;;;;6.25;5.13;;;11.70;99.90;;;;;;5104714;27;20141;-80
2022/01/02 08:27:21;;;;;;;9.50;5.55;;;11.70;99.90;;;;;;5114396;27;20055;-80
2022/01/02 08:29:48;;;;;;;11.50;5.10;;;11.60;99.90;;;;;;5124183;27;20056;-80
2022/01/02 08:32:14;;;;;;;10.05;5.38;;;11.60;99.90;;;;;;5100862;28;20050;-81
2022/01/02 08:34:41;;;;;;;11.95;5.70;;;11.70;99.90;;;;;;5109441;27;20051;-81
2022/01/02 08:37:07;;;;;;;15.55;5.70;;;11.60;99.90;;;;;;5129274;27;20194;-80
2022/01/02 08:39:34;;;;;;;10.38;6.28;;;11.60;99.90;;;;;;5112068;27;20058;-81
2022/01/02 08:42:00;;;;;;;9.55;5.25;;;11.70;99.90;;;;;;5106558;27;20062;-81
2022/01/02 08:44:27;;;;;;;14.05;5.10;;;11.60;99.90;;;;;;5106578;27;20044;-81
2022/01/02 08:46:53;;;;;;;11.23;5.55;;;11.60;99.90;;;;;;5105379;27;20040;-81
2022/01/02 08:49:20;;;;;;;7.45;5.20;;;11.60;99.90;;;;;;5102016;27;20712;-81
2022/01/02 08:51:47;;;;;;;7.60;5.18;;;11.70;99.90;;;;;;5111169;27;20047;-81
2022/01/02 08:54:13;;;;;;;8.38;5.45;;;11.60;99.90;;;;;;5099995;28;20561;-80
2022/01/02 08:56:40;;;;;;;12.45;5.18;;;11.60;99.90;;;;;;5116312;27;20510;-81
2022/01/02 08:59:06;;;;;;;7.65;4.40;;;11.60;99.90;;;;;;5113836;27;20057;-80
2022/01/02 09:01:33;;;;;;;10.52;5.80;;;11.60;99.90;;;;;;5105562;27;20050;-80
2022/01/02 09:03:59;;;;;;;9.38;4.82;;;11.60;99.90;;;;;;5106783;27;20470;-80
2022/01/02 09:06:26;;;;;;;12.88;5.72;;;11.50;99.90;;;;;;5095660;28;20494;-80
2022/01/02 09:08:53;;;;;;;13.65;4.72;;;11.50;99.90;;;;;;5104838;27;20493;-81
2022/01/02 09:11:19;;;;;;;14.73;5.75;;;11.50;99.90;;;;;;5098229;27;20151;-81
2022/01/02 09:13:46;;;;;;;9.73;5.47;;;11.40;99.90;;;;;;5109180;27;20078;-81
2022/01/02 09:16:12;;;;;;;6.57;5.03;;;11.40;99.90;;;;;;5119778;27;20047;-81
2022/01/02 09:18:39;;;;;;;11.52;5.68;;;11.40;99.90;;;;;;5108663;27;20055;-81
2022/01/02 09:21:06;;;;;;;8.35;4.90;;;11.40;99.90;;;;;;5107711;28;20058;-81
2022/01/02 09:23:32;;;;;;;6.20;4.75;;;11.40;99.90;;;;;;5103389;27;20051;-80
2022/01/02 09:25:59;;;;;;;8.85;4.15;;;11.30;99.90;;;;;;5126031;27;20058;-81
2022/01/02 09:28:25;;;;;;;9.88;4.85;;;11.30;99.90;;;;;;5116872;27;20051;-81
2022/01/02 09:30:52;;;;;;;11.50;5.40;;;11.40;99.90;;;;;;5123211;27;20447;-81
2022/01/02 09:33:18;;;;;;;12.18;5.25;;;11.40;99.90;;;;;;5102881;28;20055;-81
2022/01/02 09:35:45;;;;;;;13.10;5.88;;;11.40;99.90;;;;;;5126879;27;20145;-81
2022/01/02 09:38:12;;;;;;;15.70;5.15;;;11.30;99.90;;;;;;5098384;27;20483;-81
2022/01/02 09:40:40;;;;;;;5.88;4.72;;;11.30;99.90;;;;;;5128252;27;20059;-81
2022/01/02 09:43:07;;;;;;;14.70;5.20;;;11.30;99.90;;;;;;5101964;28;20491;-81
2022/01/02 09:45:38;;;;;;;11.75;5.40;;;11.40;99.90;;;;;;5099904;27;20882;-80
2022/01/02 09:48:05;;;;;;;11.20;5.95;;;11.30;99.90;;;;;;5120637;27;20520;-81
2022/01/02 09:50:32;;;;;;;6.00;5.40;;;11.30;99.90;;;;;;5111491;27;20083;-81
2022/01/02 09:52:58;;;;;;;9.38;5.65;;;11.30;99.90;;;;;;5102925;28;20055;-81
2022/01/02 09:55:25;;;;;;;7.00;5.60;;;11.30;99.90;;;;;;5109247;27;20054;-81
2022/01/02 09:57:53;;;;;;;8.45;5.38;;;11.30;99.90;;;;;;5094607;27;20061;-81
2022/01/02 10:00:20;;;;;;;8.95;6.55;;;11.30;99.90;;;;;;5118633;27;20083;-81
2022/01/02 10:02:46;;;;;;;8.63;5.55;;;11.40;99.90;;;;;;5103959;27;20126;-80
2022/01/02 10:05:13;;;;;;;11.85;5.68;;;11.50;99.90;;;;;;5108601;27;20043;-81
2022/01/02 10:07:39;;;;;;;9.98;5.97;;;11.40;99.90;;;;;;5099687;28;20035;-81
2022/01/02 10:10:06;;;;;;;7.40;5.38;;;11.40;99.90;;;;;;5096687;28;20047;-80
2022/01/02 10:12:33;;;;;;;12.88;6.00;;;11.50;99.90;;;;;;5106539;27;20055;-81
2022/01/02 10:15:00;;;;;;;9.43;6.25;;;11.50;99.90;;;;;;5109461;27;20047;-81
2022/01/02 10:17:26;;;;;;;9.35;5.47;;;11.50;99.90;;;;;;5101161;28;20051;-81
2022/01/02 10:19:53;;;;;;;16.90;6.57;;;11.50;99.90;;;;;;5127901;27;20051;-81
2022/01/02 10:22:20;;;;;;;9.88;5.20;;;11.60;99.90;;;;;;5107497;27;20054;-81
2022/01/02 10:24:47;;;;;;;12.43;6.15;;;11.50;99.90;;;;;;5094959;27;20047;-81
2022/01/02 10:27:14;;;;;;;15.65;5.70;;;11.50;99.90;;;;;;5124000;27;20051;-80
2022/01/02 10:29:40;;;;;;;11.85;5.38;;;11.50;99.90;;;;;;5103133;28;20148;-80
2022/01/02 10:32:07;;;;;;;6.05;5.40;;;11.50;99.90;;;;;;5107393;27;20051;-81
2022/01/02 10:34:34;;;;;;;8.95;5.68;;;11.60;99.90;;;;;;5101594;27;20051;-81
2022/01/02 10:37:00;;;;;;;8.13;4.68;;;11.50;99.90;;;;;;5124143;27;20051;-81
2022/01/02 10:39:27;;;;;;;10.23;5.85;;;11.70;99.90;;;;;;5096325;27;20398;-81
2022/01/02 10:41:53;;;;;;;7.25;5.15;;;11.60;99.90;;;;;;5100454;27;20055;-80
2022/01/02 10:44:20;;;;;;;9.40;6.10;;;11.60;99.90;;;;;;5101019;28;20055;-81
2022/01/02 10:46:46;;;;;;;9.10;6.07;;;11.60;99.90;;;;;;5108820;27;20054;-80
2022/01/02 10:49:13;;;;;;;11.48;5.78;;;11.60;99.90;;;;;;5117348;27;20056;-81
2022/01/02 10:51:40;;;;;;;19.00;7.03;;;11.70;99.90;;;;;;5096850;28;20126;-81
2022/01/02 10:54:06;;;;;;;18.85;6.53;;;11.70;99.90;;;;;;5102942;27;20051;-81
2022/01/02 10:56:33;;;;;;;11.60;6.63;;;11.80;99.90;;;;;;5096775;28;20475;-81
2022/01/02 10:58:59;;;;;;;12.52;6.60;;;11.80;99.90;;;;;;5102604;27;20069;-81
2022/01/02 11:01:26;;;;;;;10.00;6.75;;;11.70;99.90;;;;;;5101970;27;20055;-81
2022/01/02 11:03:52;;;;;;;8.32;7.13;;;11.80;99.90;;;;;;5108779;27;20055;-81
2022/01/02 11:06:19;;;;;;;15.15;8.23;;;11.70;99.90;;;;;;5127046;27;20050;-81
2022/01/02 11:08:45;;;;;;;11.40;7.55;;;11.70;99.90;;;;;;5109726;27;20043;-81
2022/01/02 11:11:12;;;;;;;9.70;8.02;;;11.80;99.90;;;;;;5102072;28;20048;-81
2022/01/02 11:13:38;;;;;;;14.45;7.72;;;11.70;99.90;;;;;;5113994;27;20493;-81
2022/01/02 11:16:05;;;;;;;10.32;7.88;;;11.70;99.90;;;;;;5098903;28;20483;-81
2022/01/02 11:18:32;;;;;;;11.73;6.75;;;11.70;99.90;;;;;;5125634;27;20062;-82
2022/01/02 11:20:58;;;;;;;14.15;7.65;;;11.70;99.90;;;;;;5106386;28;20062;-80
2022/01/02 11:23:25;;;;;;;13.23;7.78;;;11.70;99.90;;;;;;5108289;27;20051;-80
2022/01/02 11:25:51;;;;;;;14.18;6.90;;;11.70;99.90;;;;;;5112913;27;20058;-81
2022/01/02 11:28:18;;;;;;;11.45;6.85;;;11.80;99.90;;;;;;5107752;27;20051;-80
2022/01/02 11:30:44;;;;;;;11.13;6.35;;;11.80;99.90;;;;;;5105189;28;20047;-80
2022/01/02 11:33:12;;;;;;;10.50;7.43;;;11.80;99.90;;;;;;5097145;27;20046;-81
2022/01/02 11:35:39;;;;;;;9.88;5.70;;;11.90;99.90;;;;;;5104012;28;20833;-81
2022/01/02 11:38:06;;;;;;;14.82;6.22;;;11.90;99.90;;;;;;5084346;28;20491;-80
2022/01/02 11:40:32;;;;;;;12.63;6.90;;;11.90;99.90;;;;;;5075591;28;20055;-80
2022/01/02 11:42:59;;;;;;;12.57;7.03;;;11.90;99.90;;;;;;5077606;28;20792;-80
2022/01/02 11:45:26;;;;;;;12.20;5.78;;;11.90;99.90;;;;;;5083046;28;20497;-80
2022/01/02 11:47:52;;;;;;;12.05;6.88;;;12.00;99.90;;;;;;5073418;28;20044;-79
2022/01/02 11:50:19;;;;;;;8.45;5.57;;;12.10;99.90;;;;;;5079918;28;20063;-80
2022/01/02 11:52:45;;;;;;;9.27;6.07;;;12.10;99.90;;;;;;5076377;28;20082;-79
2022/01/02 11:55:12;;;;;;;10.18;5.75;;;12.00;99.90;;;;;;5079544;28;20541;-80
2022/01/02 11:57:38;;;;;;;11.05;5.80;;;12.00;99.90;;;;;;5080264;28;20052;-83
2022/01/02 12:00:05;;;;;;;14.18;5.90;;;11.90;99.90;;;;;;5069011;28;20051;-79
2022/01/02 12:02:31;;;;;;;7.85;6.22;;;11.90;99.90;;;;;;5081136;28;20139;-79
2022/01/02 12:04:58;;;;;;;17.75;6.93;;;11.90;99.90;;;;;;5073893;28;20059;-79
2022/01/02 12:07:24;;;;;;;10.98;6.43;;;11.90;99.90;;;;;;5076386;28;20298;-79
2022/01/02 12:09:52;;;;;;;13.98;7.55;;;11.90;99.90;;;;;;5070964;28;20052;-79
2022/01/02 12:12:18;;;;;;;11.68;7.35;;;11.90;99.90;;;;;;5084374;28;20097;-79
2022/01/02 12:14:45;;;;;;;14.95;6.63;;;11.90;99.90;;;;;;5085870;28;20044;-80
2022/01/02 12:17:12;;;;;;;10.52;5.80;;;11.80;99.90;;;;;;5078877;28;20059;-80
2022/01/02 12:19:39;;;;;;;9.23;5.97;;;11.90;99.90;;;;;;5083620;28;20047;-79
2022/01/02 12:22:06;;;;;;;13.55;5.18;;;12.00;99.90;;;;;;5070261;28;20090;-80
2022/01/02 12:24:32;;;;;;;8.77;5.20;;;11.90;99.90;;;;;;5077595;28;20052;-81
2022/01/02 12:26:59;;;;;;;9.43;5.53;;;11.90;99.90;;;;;;5075795;28;20052;-80
2022/01/02 12:29:25;;;;;;;8.43;4.75;;;12.00;99.90;;;;;;5076626;28;20737;-79
2022/01/02 12:31:52;;;;;;;10.07;4.38;;;12.00;99.90;;;;;;5068425;28;20476;-80
2022/01/02 12:34:18;;;;;;;15.30;5.93;;;12.10;99.90;;;;;;5082216;28;20400;-78
2022/01/02 12:36:45;;;;;;;11.00;4.75;;;12.10;99.90;;;;;;5082889;28;20799;-80